Time;durP1;ratioP1;P1;durP2;ratioP2;P2;SDS_P1;SDS_P2;PMS_P1;PMS_P2;Temp;Humidity;BMP_temperature;BMP_pressure;BME280_temperature;BME280_humidity;BME280_pressure;Samples;Min_cycle;Max_cycle;Signal;HPM_P1;HPM_P2
2023/04/13 00:00:14;;;;;;;3.70;1.40;;;5.50;46.10;;;;;;5023498;28;20483;-63
2023/04/13 00:02:40;;;;;;;3.30;1.50;;;5.40;31.30;;;;;;5023532;28;20037;-64
2023/04/13 00:05:10;;;;;;;3.58;1.50;;;5.40;45.30;;;;;;5022027;28;20047;-64
2023/04/13 00:07:37;;;;;;;2.80;1.60;;;5.30;33.20;;;;;;5019064;28;20451;-63
2023/04/13 00:10:08;;;;;;;5.63;1.73;;;5.30;73.20;;;;;;5018880;28;20134;-64
2023/04/13 00:12:39;;;;;;;3.42;1.70;;;5.20;42.20;;;;;;5014990;28;20337;-63
2023/04/13 00:15:06;;;;;;;6.00;2.35;;;5.10;56.40;;;;;;5026383;28;20053;-63
2023/04/13 00:17:32;;;;;;;5.15;2.15;;;5.20;85.60;;;;;;5039746;28;20072;-63
2023/04/13 00:20:04;;;;;;;4.00;2.10;;;5.10;63.50;;;;;;5016651;28;20116;-63
2023/04/13 00:22:30;;;;;;;4.15;2.00;;;5.10;57.40;;;;;;5020583;28;20044;-62
2023/04/13 00:24:56;;;;;;;4.93;2.53;;;5.10;69.40;;;;;;5020808;28;20276;-63
2023/04/13 00:27:26;;;;;;;6.53;2.30;;;5.10;59.70;;;;;;5023843;28;20102;-63
2023/04/13 00:29:55;;;;;;;3.72;2.13;;;5.10;86.70;;;;;;5018977;28;20321;-64
2023/04/13 00:32:21;;;;;;;3.00;2.15;;;5.10;47.90;;;;;;5016502;28;20049;-64
2023/04/13 00:34:47;;;;;;;5.22;2.40;;;5.10;68.40;;;;;;5020526;28;20163;-64
2023/04/13 00:37:13;;;;;;;6.55;2.38;;;5.10;92.90;;;;;;5019997;28;20134;-64
2023/04/13 00:39:42;;;;;;;4.80;2.38;;;5.20;98.90;;;;;;4999671;28;20037;-64
2023/04/13 00:42:08;;;;;;;4.28;2.38;;;5.20;89.40;;;;;;5017461;28;20103;-63
2023/04/13 00:44:35;;;;;;;4.05;2.33;;;5.30;21.10;;;;;;5012009;28;20291;-64
2023/04/13 00:47:02;;;;;;;5.57;1.95;;;5.40;94.00;;;;;;5019037;28;20037;-65
2023/04/13 00:49:29;;;;;;;4.10;2.33;;;5.50;23.40;;;;;;5021299;28;20037;-62
2023/04/13 00:51:55;;;;;;;6.25;2.33;;;5.50;46.40;;;;;;5028777;28;20025;-63
2023/04/13 00:54:21;;;;;;;3.58;1.85;;;5.60;38.50;;;;;;5018750;28;20055;-63
2023/04/13 00:56:48;;;;;;;3.50;2.22;;;5.60;99.90;;;;;;5017769;28;20353;-64
2023/04/13 00:59:16;;;;;;;5.35;2.17;;;5.60;99.90;;;;;;5028766;28;20100;-64
2023/04/13 01:01:55;;;;;;;5.70;2.20;;;5.60;93.10;;;;;;5017341;28;20120;-64
2023/04/13 01:04:24;;;;;;;4.00;1.80;;;5.70;66.30;;;;;;5001356;28;20559;-63
2023/04/13 01:07:03;;;;;;;5.53;2.63;;;5.60;86.90;;;;;;5016317;28;20049;-63
2023/04/13 01:10:00;;;;;;;4.07;2.30;;;5.70;1.00;;;;;;5038118;28;20106;-64
2023/04/13 01:12:35;;;;;;;6.05;2.15;;;5.70;24.20;;;;;;5018924;28;20304;-63
2023/04/13 01:15:11;;;;;;;5.68;2.53;;;5.70;51.90;;;;;;5029063;28;20053;-63
2023/04/13 01:17:40;;;;;;;2.97;2.08;;;5.60;1.00;;;;;;5012063;28;20037;-64
2023/04/13 01:20:11;;;;;;;4.22;2.00;;;5.70;42.50;;;;;;5018242;28;20132;-63
2023/04/13 01:22:44;;;;;;;3.83;2.50;;;5.70;42.50;;;;;;4998648;28;20053;-64
2023/04/13 01:25:16;;;;;;;3.90;2.10;;;5.70;35.80;;;;;;5022254;28;20122;-65
2023/04/13 01:28:09;;;;;;;5.85;1.92;;;5.70;33.10;;;;;;5010908;28;20551;-64
2023/04/13 01:30:36;;;;;;;5.28;2.33;;;5.80;1.00;;;;;;5018117;28;20451;-64
2023/04/13 01:33:03;;;;;;;2.90;2.20;;;5.90;58.10;;;;;;5019179;28;20332;-64
2023/04/13 01:35:30;;;;;;;6.40;2.45;;;6.00;1.00;;;;;;5016490;28;20329;-65
2023/04/13 01:37:56;;;;;;;2.20;2.00;;;6.00;4.90;;;;;;5012891;28;20041;-63
2023/04/13 01:40:25;;;;;;;6.30;2.17;;;6.00;11.50;;;;;;5018934;28;20594;-64
2023/04/13 01:42:51;;;;;;;4.57;2.47;;;6.00;1.00;;;;;;5038928;28;20291;-64
2023/04/13 01:45:24;;;;;;;5.68;2.50;;;6.00;1.00;;;;;;5016434;28;20956;-63
2023/04/13 01:48:08;;;;;;;2.70;2.25;;;6.00;1.00;;;;;;5035054;28;20041;-63
2023/04/13 01:50:56;;;;;;;5.95;3.42;;;5.90;1.00;;;;;;5018710;28;20047;-63
2023/04/13 01:53:27;;;;;;;5.68;3.10;;;5.90;30.80;;;;;;5035019;28;20045;-63
2023/04/13 01:55:54;;;;;;;3.80;2.42;;;5.70;77.30;;;;;;5018918;28;20051;-65
2023/04/13 01:58:22;;;;;;;4.50;3.38;;;5.70;99.90;;;;;;5019113;28;20029;-66
2023/04/13 02:00:48;;;;;;;4.85;3.25;;;5.50;99.90;;;;;;5029670;28;20112;-63
2023/04/13 02:03:15;;;;;;;4.65;2.85;;;5.60;99.90;;;;;;5014401;28;20044;-62
2023/04/13 02:05:40;;;;;;;4.80;3.13;;;5.50;99.90;;;;;;5019454;28;20359;-63
2023/04/13 02:08:07;;;;;;;4.80;3.28;;;5.60;99.90;;;;;;5020213;28;20533;-63
2023/04/13 02:10:36;;;;;;;4.90;3.38;;;5.40;99.90;;;;;;5020012;28;20499;-64
2023/04/13 02:13:04;;;;;;;4.57;3.83;;;5.40;99.90;;;;;;5024195;28;20075;-63
2023/04/13 02:15:34;;;;;;;4.18;3.35;;;5.30;99.90;;;;;;5008311;28;20095;-65
2023/04/13 02:18:00;;;;;;;4.07;3.17;;;5.20;99.90;;;;;;5020289;28;20087;-63
2023/04/13 02:20:31;;;;;;;3.92;3.53;;;5.30;99.90;;;;;;5020221;28;20454;-63
2023/04/13 02:22:58;;;;;;;5.20;2.90;;;5.30;99.90;;;;;;5019702;28;20041;-63
2023/04/13 02:25:26;;;;;;;6.97;3.10;;;5.30;99.90;;;;;;5018414;28;20103;-64
2023/04/13 02:27:53;;;;;;;5.10;3.17;;;5.30;99.90;;;;;;5020526;28;20329;-64
2023/04/13 02:30:18;;;;;;;6.18;3.08;;;5.30;99.90;;;;;;5032483;28;20142;-64
2023/04/13 02:32:48;;;;;;;4.18;3.25;;;5.30;99.90;;;;;;5018169;28;20531;-65
2023/04/13 02:35:14;;;;;;;4.30;2.80;;;5.20;99.90;;;;;;5035186;28;20373;-64
2023/04/13 02:37:40;;;;;;;5.90;3.30;;;5.20;99.90;;;;;;5006864;28;20076;-64
2023/04/13 02:40:11;;;;;;;7.63;3.35;;;5.10;99.90;;;;;;5026389;28;20508;-64
2023/04/13 02:42:41;;;;;;;4.50;2.65;;;5.40;99.90;;;;;;5009208;28;20140;-64
2023/04/13 02:45:11;;;;;;;4.43;2.80;;;5.40;99.90;;;;;;5015814;28;20060;-65
2023/04/13 02:47:37;;;;;;;4.70;2.92;;;5.10;99.90;;;;;;5016486;28;20148;-64
2023/04/13 02:50:04;;;;;;;6.85;2.90;;;5.40;99.90;;;;;;5017106;28;20459;-65
2023/04/13 02:52:30;;;;;;;3.22;2.30;;;5.30;99.90;;;;;;5016421;28;20072;-63
2023/04/13 02:54:56;;;;;;;5.70;2.90;;;5.40;1.00;;;;;;5025474;28;20123;-64
2023/04/13 02:57:24;;;;;;;4.03;2.22;;;5.30;1.00;;;;;;5014758;28;20445;-64
2023/04/13 02:59:50;;;;;;;4.78;2.65;;;5.20;1.00;;;;;;5016234;28;20063;-64
2023/04/13 03:02:16;;;;;;;6.00;3.00;;;5.40;1.00;;;;;;5016013;28;20403;-65
2023/04/13 03:04:43;;;;;;;4.10;2.70;;;5.40;1.00;;;;;;5017682;28;20658;-63
2023/04/13 03:07:09;;;;;;;3.15;2.45;;;5.50;1.00;;;;;;5009668;28;20041;-65
2023/04/13 03:09:40;;;;;;;5.18;3.08;;;5.10;1.00;;;;;;5015060;28;20047;-66
2023/04/13 03:12:06;;;;;;;4.40;3.08;;;5.50;1.00;;;;;;5033238;28;20206;-66
2023/04/13 03:14:32;;;;;;;3.53;2.92;;;5.30;1.00;;;;;;5010967;28;20036;-66
2023/04/13 03:16:58;;;;;;;4.03;3.63;;;5.60;1.10;;;;;;5013290;28;20068;-65
2023/04/13 03:19:24;;;;;;;3.75;3.20;;;5.30;23.10;;;;;;5009211;28;20490;-66
2023/04/13 03:21:51;;;;;;;5.50;2.42;;;5.10;44.20;;;;;;5009868;28;20037;-66
2023/04/13 03:24:17;;;;;;;4.13;3.28;;;5.20;56.70;;;;;;5005043;28;20045;-66
2023/04/13 03:26:43;;;;;;;3.40;2.85;;;5.50;70.00;;;;;;5005975;28;20060;-65
2023/04/13 03:29:08;;;;;;;6.05;4.00;;;5.60;90.40;;;;;;5013201;28;20511;-65
2023/04/13 03:31:34;;;;;;;7.22;4.07;;;5.30;99.90;;;;;;5008935;28;20053;-64
2023/04/13 03:34:00;;;;;;;3.47;3.08;;;5.50;99.90;;;;;;5015617;28;20120;-65
2023/04/13 03:36:26;;;;;;;3.17;2.88;;;5.40;99.90;;;;;;5015148;28;20143;-65
2023/04/13 03:38:53;;;;;;;4.03;3.47;;;5.60;99.90;;;;;;5014452;28;20659;-64
2023/04/13 03:41:19;;;;;;;4.85;3.25;;;5.50;99.90;;;;;;5015679;28;20178;-65
2023/04/13 03:43:44;;;;;;;6.13;3.30;;;5.40;99.90;;;;;;5000770;28;20041;-67
2023/04/13 03:46:11;;;;;;;5.75;4.35;;;5.20;99.90;;;;;;5014018;28;20175;-64
2023/04/13 03:48:39;;;;;;;4.22;3.58;;;5.60;99.90;;;;;;5014846;28;20041;-64
2023/04/13 03:51:05;;;;;;;5.28;4.47;;;5.50;99.90;;;;;;5013920;28;20124;-68
2023/04/13 03:53:33;;;;;;;6.95;4.97;;;5.20;99.90;;;;;;5007498;28;20047;-68
2023/04/13 03:55:59;;;;;;;6.07;5.03;;;5.20;99.90;;;;;;5025369;28;20203;-68
2023/04/13 03:58:25;;;;;;;8.68;5.95;;;5.30;99.90;;;;;;5008245;28;20048;-67
2023/04/13 04:00:51;;;;;;;8.52;6.57;;;5.50;99.90;;;;;;5033560;28;20064;-68
2023/04/13 04:03:17;;;;;;;9.27;6.40;;;5.30;99.90;;;;;;5015692;28;20100;-67
2023/04/13 04:05:43;;;;;;;8.20;5.50;;;5.60;99.90;;;;;;5015003;28;20355;-66
2023/04/13 04:08:09;;;;;;;7.68;5.47;;;5.30;99.90;;;;;;5014032;28;20083;-67
2023/04/13 04:10:35;;;;;;;9.30;5.97;;;5.20;99.90;;;;;;5016656;28;20539;-68
2023/04/13 04:13:01;;;;;;;8.40;6.40;;;5.20;99.90;;;;;;5013025;28;20284;-66
2023/04/13 04:15:27;;;;;;;11.40;7.05;;;5.60;99.90;;;;;;5018831;28;20593;-65
2023/04/13 04:17:53;;;;;;;6.55;5.90;;;5.30;99.90;;;;;;5015860;28;20515;-66
2023/04/13 04:20:19;;;;;;;8.45;5.70;;;5.70;99.90;;;;;;5010147;28;20167;-67
2023/04/13 04:22:46;;;;;;;6.07;5.47;;;5.60;99.90;;;;;;5034150;28;20060;-65
2023/04/13 04:25:20;;;;;;;6.55;5.80;;;5.20;99.90;;;;;;5013177;28;20053;-66
2023/04/13 04:27:48;;;;;;;6.53;4.55;;;5.70;99.90;;;;;;5019160;28;20396;-67
2023/04/13 04:30:16;;;;;;;5.28;3.95;;;5.50;99.90;;;;;;4996264;28;20049;-66
2023/04/13 04:32:42;;;;;;;4.93;3.05;;;5.40;99.90;;;;;;5016983;28;20469;-65
2023/04/13 04:35:10;;;;;;;4.35;2.95;;;5.80;99.90;;;;;;5017964;28;20270;-66
2023/04/13 04:37:36;;;;;;;5.07;2.88;;;5.80;99.90;;;;;;5024968;28;20079;-66
2023/04/13 04:40:08;;;;;;;3.22;1.73;;;5.90;99.90;;;;;;5011115;28;20128;-66
2023/04/13 04:42:37;;;;;;;2.30;1.67;;;5.80;99.90;;;;;;5015009;28;20537;-66
2023/04/13 04:45:09;;;;;;;1.83;1.38;;;5.70;99.90;;;;;;5045097;28;20041;-65
2023/04/13 04:47:40;;;;;;;3.38;1.33;;;5.50;99.90;;;;;;5023951;28;20187;-68
2023/04/13 04:50:08;;;;;;;2.80;1.50;;;5.50;99.90;;;;;;5016706;28;20604;-65
2023/04/13 04:52:34;;;;;;;1.98;1.20;;;5.30;99.90;;;;;;5011708;28;20052;-65
2023/04/13 04:54:59;;;;;;;4.40;1.30;;;5.60;99.90;;;;;;5011507;28;20037;-67
2023/04/13 04:57:26;;;;;;;1.75;1.38;;;5.80;99.90;;;;;;5003202;28;20037;-67
2023/04/13 04:59:51;;;;;;;2.22;1.00;;;5.30;99.90;;;;;;5004176;28;20239;-67
2023/04/13 05:02:17;;;;;;;3.50;1.00;;;5.80;99.90;;;;;;5017885;28;20041;-68
2023/04/13 05:04:43;;;;;;;1.75;1.13;;;5.30;99.90;;;;;;5015421;28;20044;-67
2023/04/13 05:07:09;;;;;;;3.85;1.30;;;5.20;99.90;;;;;;5009023;28;20048;-66
2023/04/13 05:09:37;;;;;;;4.60;1.50;;;5.40;99.90;;;;;;5015391;28;20053;-66
2023/04/13 05:12:03;;;;;;;2.58;1.30;;;5.20;99.90;;;;;;5004024;28;20120;-66
2023/04/13 05:14:29;;;;;;;2.75;1.70;;;5.30;99.90;;;;;;5014885;28;20037;-66
2023/04/13 05:16:55;;;;;;;3.83;1.50;;;5.70;99.90;;;;;;5020270;28;20099;-66
2023/04/13 05:19:20;;;;;;;1.60;1.15;;;5.70;99.90;;;;;;5017813;28;20164;-66
2023/04/13 05:21:46;;;;;;;3.50;1.60;;;5.20;99.90;;;;;;5016074;28;20037;-67
2023/04/13 05:24:11;;;;;;;2.38;1.98;;;5.80;99.90;;;;;;5015311;28;20081;-68
2023/04/13 05:26:37;;;;;;;3.92;2.40;;;5.80;99.90;;;;;;5016134;28;20044;-67
2023/04/13 05:29:05;;;;;;;4.93;2.50;;;5.20;99.90;;;;;;5036247;28;20044;-65
2023/04/13 05:31:31;;;;;;;5.18;2.50;;;5.20;99.90;;;;;;5014778;28;20044;-66
2023/04/13 05:33:56;;;;;;;3.20;2.90;;;5.70;99.90;;;;;;5019886;28;20558;-65
2023/04/13 05:36:22;;;;;;;3.53;2.67;;;5.60;99.90;;;;;;5019198;28;20140;-65
2023/04/13 05:38:48;;;;;;;4.25;2.58;;;5.60;99.90;;;;;;5018836;28;20052;-65
2023/04/13 05:41:13;;;;;;;3.22;2.75;;;5.90;99.90;;;;;;5016375;28;21313;-65
2023/04/13 05:43:39;;;;;;;4.15;3.03;;;5.60;99.90;;;;;;5015810;28;20033;-65
2023/04/13 05:46:06;;;;;;;4.43;3.38;;;5.40;99.90;;;;;;5020042;28;20351;-65
2023/04/13 05:48:32;;;;;;;4.63;3.83;;;5.50;99.90;;;;;;5000736;28;20641;-66
2023/04/13 05:50:58;;;;;;;8.55;3.55;;;5.70;99.90;;;;;;5016424;28;20072;-65
2023/04/13 05:53:24;;;;;;;5.60;3.67;;;6.00;99.90;;;;;;5016322;28;20053;-65
2023/04/13 05:55:51;;;;;;;3.50;2.72;;;6.20;99.90;;;;;;5009364;28;20045;-65
2023/04/13 05:58:20;;;;;;;4.90;2.78;;;6.30;99.90;;;;;;5014836;28;20045;-66
2023/04/13 06:00:46;;;;;;;2.38;2.10;;;6.40;99.90;;;;;;5007578;28;20326;-66
2023/04/13 06:03:14;;;;;;;3.42;2.40;;;6.60;99.90;;;;;;5015055;28;20785;-64
2023/04/13 06:05:40;;;;;;;4.63;2.97;;;6.80;99.90;;;;;;5017654;28;20152;-66
2023/04/13 06:08:09;;;;;;;3.42;2.53;;;6.60;99.90;;;;;;5027295;28;20071;-65
2023/04/13 06:10:35;;;;;;;3.00;2.60;;;6.90;99.90;;;;;;5014024;28;20049;-66
2023/04/13 06:13:01;;;;;;;3.47;2.40;;;7.20;99.90;;;;;;5015742;28;20052;-65
2023/04/13 06:15:27;;;;;;;5.57;3.15;;;7.20;99.90;;;;;;5010578;28;20037;-65
2023/04/13 06:17:52;;;;;;;5.07;3.05;;;7.10;99.90;;;;;;5001166;28;20102;-65
2023/04/13 06:20:21;;;;;;;5.35;3.10;;;7.20;99.90;;;;;;5003668;28;20411;-65
2023/04/13 06:22:47;;;;;;;3.15;2.88;;;7.50;99.90;;;;;;5029996;28;20455;-65
2023/04/13 06:25:14;;;;;;;3.78;2.65;;;7.60;99.90;;;;;;5013395;28;20602;-65
2023/04/13 06:27:42;;;;;;;5.32;2.95;;;7.60;99.90;;;;;;5011033;28;20458;-65
2023/04/13 06:30:09;;;;;;;3.80;2.80;;;7.70;99.90;;;;;;5011661;28;20163;-65
2023/04/13 06:32:35;;;;;;;5.22;2.67;;;8.10;99.90;;;;;;5019109;28;20048;-66
2023/04/13 06:35:04;;;;;;;4.03;2.55;;;8.20;99.90;;;;;;5010571;28;20048;-65
2023/04/13 06:37:29;;;;;;;5.32;2.83;;;8.40;99.90;;;;;;5026965;28;20037;-66
2023/04/13 06:39:56;;;;;;;3.55;2.50;;;8.30;99.90;;;;;;4997188;28;20483;-66
2023/04/13 06:42:22;;;;;;;5.65;2.30;;;8.50;99.90;;;;;;5013756;28;20758;-65
2023/04/13 06:44:48;;;;;;;6.32;2.97;;;8.30;66.50;;;;;;5015255;28;20045;-66
2023/04/13 06:47:14;;;;;;;4.53;2.40;;;8.30;99.90;;;;;;5015905;28;20359;-66
2023/04/13 06:49:40;;;;;;;6.20;2.88;;;8.80;99.90;;;;;;5014639;28;20574;-65
2023/04/13 06:52:06;;;;;;;7.50;2.92;;;8.80;99.90;;;;;;5011602;28;20041;-66
2023/04/13 06:54:34;;;;;;;9.40;3.25;;;8.60;72.60;;;;;;5002620;28;20167;-66
2023/04/13 06:57:00;;;;;;;5.10;2.42;;;8.40;19.60;;;;;;5029468;28;20588;-66
2023/04/13 06:59:26;;;;;;;5.82;2.85;;;7.90;1.00;;;;;;5021854;28;20554;-66
2023/04/13 07:01:52;;;;;;;5.70;3.40;;;7.50;1.00;;;;;;5025603;28;21034;-65
2023/04/13 07:04:18;;;;;;;8.60;3.42;;;7.50;79.80;;;;;;5016732;28;20041;-64
2023/04/13 07:06:45;;;;;;;8.63;3.22;;;7.50;99.90;;;;;;4994915;28;20918;-65
2023/04/13 07:09:10;;;;;;;8.60;3.08;;;7.40;99.90;;;;;;5033504;28;20140;-65
2023/04/13 07:11:36;;;;;;;9.15;2.92;;;7.30;99.90;;;;;;5016275;28;20270;-65
2023/04/13 07:14:02;;;;;;;5.40;2.90;;;7.40;99.90;;;;;;5011402;28;20506;-66
2023/04/13 07:16:28;;;;;;;6.45;2.58;;;7.40;99.90;;;;;;5013673;28;20108;-66
2023/04/13 07:18:54;;;;;;;6.68;2.50;;;7.40;99.90;;;;;;5015147;28;20527;-66
2023/04/13 07:21:20;;;;;;;7.22;2.60;;;7.50;99.90;;;;;;5009712;28;20049;-66
2023/04/13 07:23:46;;;;;;;5.50;2.80;;;7.80;99.90;;;;;;5014662;28;20072;-66
2023/04/13 07:26:15;;;;;;;5.82;2.08;;;7.60;99.90;;;;;;5018335;28;20057;-66
2023/04/13 07:28:41;;;;;;;5.25;1.73;;;7.50;99.90;;;;;;5017400;28;20470;-65
2023/04/13 07:31:06;;;;;;;6.20;1.42;;;7.60;99.90;;;;;;5013884;28;20056;-65
2023/04/13 07:33:32;;;;;;;3.65;1.63;;;7.80;99.90;;;;;;5033119;28;20042;-65
2023/04/13 07:35:58;;;;;;;4.18;1.88;;;7.50;99.90;;;;;;5017713;28;20053;-65
2023/04/13 07:38:24;;;;;;;5.45;2.25;;;7.50;99.90;;;;;;5019535;28;20050;-65
2023/04/13 07:40:50;;;;;;;6.60;2.60;;;7.70;99.90;;;;;;5003647;28;20056;-65
2023/04/13 07:43:16;;;;;;;6.50;2.50;;;8.40;99.90;;;;;;4998800;28;20033;-65
2023/04/13 07:45:42;;;;;;;5.70;2.65;;;8.50;99.90;;;;;;4985994;28;20777;-66
2023/04/13 07:48:08;;;;;;;6.95;2.53;;;8.50;99.90;;;;;;5016145;28;20045;-66
2023/04/13 07:50:40;;;;;;;6.63;2.33;;;8.80;99.90;;;;;;5020732;28;20044;-63
2023/04/13 07:53:06;;;;;;;6.85;2.42;;;8.90;35.50;;;;;;5034062;28;20506;-63
2023/04/13 07:55:32;;;;;;;5.10;2.20;;;8.90;1.00;;;;;;5026195;28;20529;-63
2023/04/13 07:57:58;;;;;;;5.53;2.50;;;8.70;99.90;;;;;;5022769;28;20041;-63
2023/04/13 08:00:24;;;;;;;8.00;2.28;;;8.30;1.00;;;;;;5023384;28;20507;-63
2023/04/13 08:02:52;;;;;;;5.90;2.00;;;8.20;1.00;;;;;;5040911;28;20037;-63
2023/04/13 08:05:18;;;;;;;6.30;2.33;;;8.10;1.00;;;;;;5025535;28;20059;-63
2023/04/13 08:07:45;;;;;;;10.15;2.85;;;8.00;1.00;;;;;;5008583;28;20041;-65
2023/04/13 08:10:11;;;;;;;11.38;2.95;;;7.90;1.00;;;;;;5022274;28;20418;-64
2023/04/13 08:12:37;;;;;;;5.88;2.70;;;7.70;1.00;;;;;;5034818;28;20090;-64
2023/04/13 08:15:03;;;;;;;9.55;2.58;;;7.80;1.00;;;;;;5025504;28;20042;-63
2023/04/13 08:17:29;;;;;;;9.02;2.78;;;7.90;66.10;;;;;;5029091;28;20518;-65
2023/04/13 08:19:54;;;;;;;8.18;2.20;;;8.30;99.90;;;;;;5028298;28;20037;-64
2023/04/13 08:22:20;;;;;;;6.85;1.73;;;8.80;99.90;;;;;;5022023;28;20033;-64
2023/04/13 08:24:46;;;;;;;3.80;1.20;;;9.50;99.90;;;;;;5022668;28;20045;-64
2023/04/13 08:27:11;;;;;;;5.13;1.13;;;9.90;99.90;;;;;;5021401;28;20127;-63
2023/04/13 08:29:37;;;;;;;6.93;1.25;;;10.20;99.90;;;;;;5015319;28;20408;-64
2023/04/13 08:32:03;;;;;;;4.25;1.00;;;10.10;99.90;;;;;;5021562;28;20041;-63
2023/04/13 08:34:29;;;;;;;6.38;0.85;;;9.90;99.90;;;;;;5032755;28;20171;-64
2023/04/13 08:36:54;;;;;;;6.40;1.00;;;9.90;99.90;;;;;;5028007;28;20044;-64
2023/04/13 08:39:20;;;;;;;4.97;1.05;;;9.90;99.90;;;;;;5028221;28;20033;-64
2023/04/13 08:41:47;;;;;;;5.15;0.50;;;9.80;99.90;;;;;;5016115;28;20125;-65
2023/04/13 08:44:14;;;;;;;5.45;0.57;;;10.10;99.90;;;;;;5024577;28;20052;-64
2023/04/13 08:46:42;;;;;;;5.18;0.40;;;10.20;99.90;;;;;;5022953;28;20458;-64
2023/04/13 08:49:10;;;;;;;3.08;0.45;;;10.10;1.00;;;;;;5015847;28;20037;-65
2023/04/13 08:51:36;;;;;;;1.27;0.28;;;9.60;96.60;;;;;;5020411;28;20376;-64
2023/04/13 08:54:01;;;;;;;2.25;0.40;;;9.10;99.90;;;;;;5039727;28;20095;-63
2023/04/13 08:56:27;;;;;;;2.65;0.30;;;8.90;99.90;;;;;;5021847;28;20128;-65
2023/04/13 08:58:59;;;;;;;2.83;0.30;;;9.30;99.90;;;;;;5020827;28;20033;-64
2023/04/13 09:01:26;;;;;;;2.45;0.60;;;9.40;99.90;;;;;;5048730;28;20112;-62
2023/04/13 09:04:07;;;;;;;4.55;0.47;;;9.70;99.90;;;;;;5023257;28;20400;-64
2023/04/13 09:06:39;;;;;;;2.40;0.40;;;10.00;99.90;;;;;;5014562;28;20043;-65
2023/04/13 09:09:09;;;;;;;3.45;0.45;;;10.60;99.90;;;;;;5004143;28;20114;-65
2023/04/13 09:11:36;;;;;;;4.35;0.50;;;10.90;1.00;;;;;;5036352;28;20075;-65
2023/04/13 09:14:02;;;;;;;1.77;0.40;;;11.10;99.90;;;;;;5006644;28;20048;-63
2023/04/13 09:16:28;;;;;;;4.20;0.50;;;11.20;99.90;;;;;;5003823;28;20469;-63
2023/04/13 09:18:55;;;;;;;1.73;0.30;;;10.80;3.40;;;;;;5020162;28;20053;-65
2023/04/13 09:21:23;;;;;;;3.75;0.40;;;10.40;1.00;;;;;;5022142;28;20095;-64
2023/04/13 09:23:53;;;;;;;4.18;0.45;;;10.10;88.20;;;;;;5018267;28;20052;-65
2023/04/13 09:26:19;;;;;;;3.40;0.50;;;9.90;99.90;;;;;;5019691;28;20237;-65
2023/04/13 09:28:46;;;;;;;1.70;0.20;;;9.80;99.90;;;;;;5017724;28;20052;-64
2023/04/13 09:31:12;;;;;;;2.63;0.50;;;9.50;84.10;;;;;;5019550;28;20118;-63
2023/04/13 09:33:50;;;;;;;3.10;0.50;;;9.30;99.90;;;;;;5019957;28;20037;-64
2023/04/13 09:36:19;;;;;;;2.08;0.25;;;9.20;51.00;;;;;;5022330;28;20045;-65
2023/04/13 09:38:51;;;;;;;2.53;0.30;;;9.00;20.60;;;;;;5019165;28;20049;-66
2023/04/13 09:41:31;;;;;;;3.20;0.30;;;9.10;1.00;;;;;;5018384;28;20044;-64
2023/04/13 09:44:02;;;;;;;0.80;0.20;;;9.10;1.00;;;;;;5018815;28;20128;-65
2023/04/13 09:46:27;;;;;;;1.33;0.20;;;9.30;99.90;;;;;;5036322;28;20116;-65
2023/04/13 09:49:03;;;;;;;1.30;0.20;;;9.60;99.90;;;;;;5004345;28;20103;-65
2023/04/13 09:51:40;;;;;;;1.85;0.30;;;9.90;99.90;;;;;;5015431;28;20040;-64
2023/04/13 09:54:06;;;;;;;2.10;0.40;;;9.90;1.00;;;;;;5011900;28;20040;-65
2023/04/13 09:56:46;;;;;;;2.45;0.45;;;9.70;1.00;;;;;;5015746;28;20046;-64
2023/04/13 09:59:16;;;;;;;4.07;0.30;;;9.50;1.00;;;;;;5017112;28;20068;-66
2023/04/13 10:01:43;;;;;;;7.03;0.60;;;9.10;1.00;;;;;;5018278;28;20415;-64
2023/04/13 10:04:10;;;;;;;2.65;0.40;;;9.00;99.90;;;;;;5011139;28;20039;-65
2023/04/13 10:06:41;;;;;;;3.30;0.70;;;8.90;99.90;;;;;;5017528;28;20048;-65
2023/04/13 10:09:08;;;;;;;2.75;0.50;;;8.60;99.90;;;;;;5018671;28;20041;-67
2023/04/13 10:11:42;;;;;;;4.15;0.47;;;8.30;99.90;;;;;;5014203;28;20042;-65
2023/04/13 10:14:15;;;;;;;2.38;0.60;;;8.10;99.90;;;;;;5034799;28;20072;-65
2023/04/13 10:16:55;;;;;;;4.10;0.60;;;7.90;99.90;;;;;;5018428;28;20041;-66
2023/04/13 10:19:26;;;;;;;4.32;0.50;;;7.70;99.90;;;;;;5026475;28;20136;-66
2023/04/13 10:21:55;;;;;;;2.42;0.50;;;7.70;99.90;;;;;;5035664;28;20045;-67
2023/04/13 10:24:22;;;;;;;1.73;0.20;;;7.50;99.90;;;;;;5014984;28;20179;-66
2023/04/13 10:26:59;;;;;;;3.30;0.45;;;7.30;99.90;;;;;;4997292;28;20357;-64
2023/04/13 10:29:28;;;;;;;2.45;0.20;;;7.30;99.90;;;;;;5017993;28;20047;-65
2023/04/13 10:31:55;;;;;;;1.75;0.20;;;7.20;99.90;;;;;;5034643;28;20189;-65
2023/04/13 10:34:24;;;;;;;2.45;0.20;;;7.30;99.90;;;;;;5026576;28;20254;-65
2023/04/13 10:36:56;;;;;;;2.70;0.30;;;7.50;1.00;;;;;;5008853;28;20038;-64
2023/04/13 10:39:31;;;;;;;3.60;0.13;;;7.40;99.90;;;;;;5018336;28;20291;-65
2023/04/13 10:42:06;;;;;;;1.27;0.10;;;7.40;99.90;;;;;;5035154;28;20385;-65
2023/04/13 10:44:48;;;;;;;1.42;0.00;;;7.80;1.00;;;;;;5007158;28;20499;-64
2023/04/13 10:47:16;;;;;;;1.05;0.10;;;7.90;1.00;;;;;;5014809;28;20525;-64
2023/04/13 10:49:43;;;;;;;0.68;0.20;;;8.10;1.00;;;;;;5009562;28;20554;-65
2023/04/13 10:52:10;;;;;;;1.88;0.10;;;8.40;1.00;;;;;;5009037;28;20044;-64
2023/04/13 10:54:38;;;;;;;0.57;0.10;;;9.10;1.00;;;;;;5017235;28;20041;-64
2023/04/13 10:57:05;;;;;;;0.73;0.10;;;9.80;1.00;;;;;;5036528;28;20049;-64
2023/04/13 10:59:43;;;;;;;1.17;0.10;;;10.40;99.90;;;;;;5003054;28;20075;-64
2023/04/13 11:02:13;;;;;;;0.68;0.10;;;10.60;99.90;;;;;;5014321;28;20526;-64
2023/04/13 11:04:41;;;;;;;0.38;0.13;;;10.50;99.90;;;;;;5031566;28;20445;-64
2023/04/13 11:07:11;;;;;;;1.17;0.10;;;10.50;99.90;;;;;;5025720;28;20547;-65
2023/04/13 11:09:40;;;;;;;0.98;0.10;;;10.80;99.90;;;;;;5034126;28;20076;-64
2023/04/13 11:12:09;;;;;;;1.88;0.20;;;10.90;99.90;;;;;;5016797;28;20075;-64
2023/04/13 11:14:37;;;;;;;1.27;0.20;;;11.30;99.90;;;;;;5027041;28;20068;-64
2023/04/13 11:17:13;;;;;;;1.63;0.20;;;11.50;99.90;;;;;;5030349;28;20550;-64
2023/04/13 11:19:50;;;;;;;1.27;0.20;;;11.40;99.90;;;;;;5016067;28;20602;-65
2023/04/13 11:22:22;;;;;;;1.58;0.20;;;11.80;99.90;;;;;;5015913;28;20507;-64
2023/04/13 11:24:49;;;;;;;1.05;0.15;;;11.70;99.90;;;;;;5013773;28;20053;-64
2023/04/13 11:27:22;;;;;;;1.63;0.20;;;11.70;99.90;;;;;;5028618;28;20489;-64
2023/04/13 11:29:58;;;;;;;2.53;0.20;;;11.60;99.90;;;;;;5019121;28;20089;-63
2023/04/13 11:32:25;;;;;;;2.00;0.15;;;11.00;99.90;;;;;;5037852;28;20612;-63
2023/04/13 11:34:51;;;;;;;1.80;0.20;;;10.50;99.90;;;;;;5002422;28;20041;-63
2023/04/13 11:37:18;;;;;;;1.70;0.20;;;10.10;99.90;;;;;;5017373;28;20063;-64
2023/04/13 11:39:44;;;;;;;1.88;0.20;;;9.80;99.90;;;;;;5018174;28;20056;-64
2023/04/13 11:42:12;;;;;;;2.63;0.20;;;9.70;99.90;;;;;;5017899;28;20103;-64
2023/04/13 11:44:38;;;;;;;1.52;0.20;;;9.90;99.90;;;;;;5013576;28;20045;-64
2023/04/13 11:47:05;;;;;;;1.48;0.20;;;10.00;99.90;;;;;;5029709;28;20041;-65
2023/04/13 11:49:31;;;;;;;3.20;0.30;;;10.30;99.90;;;;;;5006848;28;20182;-65
2023/04/13 11:52:01;;;;;;;2.40;0.10;;;10.70;99.90;;;;;;5012655;28;20119;-65
2023/04/13 11:54:29;;;;;;;2.42;0.20;;;11.20;99.90;;;;;;5017394;28;20177;-65
2023/04/13 11:56:55;;;;;;;2.38;0.20;;;11.30;99.90;;;;;;5029192;28;20048;-64
2023/04/13 11:59:25;;;;;;;3.40;0.40;;;11.40;99.90;;;;;;5026541;28;20037;-65
2023/04/13 12:01:51;;;;;;;5.47;0.45;;;11.40;5.40;;;;;;5021127;28;20129;-64
2023/04/13 12:04:17;;;;;;;6.60;0.50;;;11.40;1.00;;;;;;5013514;28;20475;-64
2023/04/13 12:06:45;;;;;;;5.63;0.50;;;11.60;72.50;;;;;;5018861;28;20091;-66
2023/04/13 12:09:11;;;;;;;7.63;0.82;;;11.60;66.40;;;;;;5005175;28;20352;-64
2023/04/13 12:11:41;;;;;;;7.32;0.90;;;11.80;76.90;;;;;;5020202;28;20047;-64
2023/04/13 12:14:07;;;;;;;8.75;1.00;;;11.60;1.00;;;;;;5017861;28;20756;-65
2023/04/13 12:16:34;;;;;;;7.03;0.60;;;11.40;1.60;;;;;;5009139;28;20048;-64
2023/04/13 12:19:09;;;;;;;8.75;0.82;;;11.20;99.90;;;;;;5021183;28;20080;-65
2023/04/13 12:21:35;;;;;;;6.53;0.70;;;11.10;1.00;;;;;;5023113;28;20675;-64
2023/04/13 12:24:02;;;;;;;3.05;0.40;;;10.80;1.00;;;;;;5011995;28;20041;-64
2023/04/13 12:26:36;;;;;;;4.75;0.40;;;10.30;1.00;;;;;;5017612;28;20250;-64
2023/04/13 12:29:06;;;;;;;6.50;0.60;;;9.80;1.00;;;;;;5019196;28;20128;-64
2023/04/13 12:31:43;;;;;;;6.00;0.40;;;9.60;42.80;;;;;;5036096;28;20854;-64
2023/04/13 12:34:08;;;;;;;8.02;0.95;;;9.20;32.50;;;;;;5017728;28;20601;-64
2023/04/13 12:36:35;;;;;;;6.45;0.50;;;8.90;99.90;;;;;;5017245;28;20048;-63
2023/04/13 12:39:04;;;;;;;9.80;0.82;;;8.80;99.90;;;;;;5019584;28;20049;-63
2023/04/13 12:41:30;;;;;;;6.32;0.60;;;8.80;99.90;;;;;;5015852;28;20138;-64
2023/04/13 12:43:56;;;;;;;8.00;0.85;;;8.80;99.90;;;;;;5020518;28;20588;-63
2023/04/13 12:46:23;;;;;;;7.20;0.73;;;8.90;99.90;;;;;;5028142;28;20128;-64
2023/04/13 12:48:49;;;;;;;7.72;0.98;;;9.00;99.90;;;;;;5016893;28;20055;-64
2023/04/13 12:51:15;;;;;;;10.98;1.10;;;9.10;99.90;;;;;;5022250;28;20491;-64
2023/04/13 12:53:41;;;;;;;7.38;0.60;;;9.30;99.90;;;;;;5039533;28;20110;-65
2023/04/13 12:56:07;;;;;;;11.68;0.77;;;9.40;99.90;;;;;;5019626;28;20041;-65
2023/04/13 12:58:34;;;;;;;7.78;0.82;;;9.60;99.90;;;;;;5019525;28;20041;-65
2023/04/13 13:01:00;;;;;;;10.90;1.17;;;9.70;99.90;;;;;;4992363;28;20254;-65